createdAt,value
2023-06-29T00:00:03.621Z,100
2023-06-29T00:05:03.783Z,100
2023-06-29T00:10:03.124Z,100
2023-06-29T00:15:03.337Z,100
2023-06-29T00:20:03.348Z,100
2023-06-29T00:25:02.972Z,100
2023-06-29T00:30:02.880Z,100
2023-06-29T00:35:02.944Z,100
2023-06-29T00:40:02.835Z,100
2023-06-29T00:45:03.727Z,100
2023-06-29T00:50:03.096Z,100
2023-06-29T00:55:02.992Z,100
2023-06-29T01:00:02.721Z,100
2023-06-29T01:05:03.560Z,100
2023-06-29T01:10:03.193Z,100
2023-06-29T01:15:03.755Z,100
2023-06-29T01:20:03.259Z,100
2023-06-29T01:25:03.020Z,100
2023-06-29T01:30:03.108Z,100
2023-06-29T01:35:03.481Z,100
2023-06-29T01:40:03.391Z,100
2023-06-29T01:45:03.194Z,100
2023-06-29T01:50:02.968Z,100
2023-06-29T01:55:03.067Z,100
2023-06-29T02:00:02.871Z,100
2023-06-29T02:05:03.532Z,100
2023-06-29T02:10:03.305Z,100
2023-06-29T02:15:03.101Z,100
2023-06-29T02:20:02.769Z,100
2023-06-29T02:25:02.821Z,100
2023-06-29T02:30:03.021Z,100
2023-06-29T02:35:03.092Z,100
2023-06-29T02:40:02.854Z,100
2023-06-29T02:45:02.766Z,100
2023-06-29T02:50:02.807Z,100
2023-06-29T02:55:03.093Z,100
2023-06-29T03:00:03.667Z,100
2023-06-29T03:05:03.278Z,100
2023-06-29T03:10:03.062Z,100
2023-06-29T03:15:03.020Z,100
2023-06-29T03:20:02.567Z,100
2023-06-29T03:25:02.744Z,100
2023-06-29T03:30:03.491Z,100
2023-06-29T03:35:03.345Z,100
2023-06-29T03:40:02.905Z,100
2023-06-29T03:45:02.714Z,100
2023-06-29T03:50:02.734Z,100
2023-06-29T03:55:04.177Z,100
2023-06-29T04:00:03.503Z,100
2023-06-29T04:05:03.095Z,100
2023-06-29T04:10:02.953Z,100
2023-06-29T04:15:02.715Z,100
2023-06-29T04:20:03.553Z,100
2023-06-29T04:25:03.359Z,100
2023-06-29T04:30:03.411Z,100
2023-06-29T04:35:03.239Z,100
2023-06-29T04:40:02.858Z,100
2023-06-29T04:45:03.610Z,100
2023-06-29T04:50:03.378Z,100
2023-06-29T04:55:03.384Z,100
2023-06-29T05:00:03.387Z,100
2023-06-29T05:05:03.051Z,100
2023-06-29T05:10:02.946Z,100
2023-06-29T05:15:02.903Z,100
2023-06-29T05:20:03.602Z,100
2023-06-29T05:25:02.655Z,100
2023-06-29T05:30:03.547Z,100
2023-06-29T05:35:03.332Z,100
2023-06-29T05:40:03.277Z,100
2023-06-29T05:45:03.192Z,100
2023-06-29T05:50:02.911Z,100
2023-06-29T05:55:03.041Z,100
2023-06-29T06:00:03.429Z,100
2023-06-29T06:05:03.104Z,100
2023-06-29T06:10:03.027Z,100
2023-06-29T06:15:03.167Z,100
2023-06-29T06:20:02.807Z,100
2023-06-29T06:25:03.401Z,100
2023-06-29T06:30:02.639Z,100
2023-06-29T06:35:02.645Z,100
2023-06-29T06:40:03.349Z,100
2023-06-29T06:45:03.055Z,100
2023-06-29T06:50:02.786Z,99.12
2023-06-29T06:55:04.093Z,99.08
2023-06-29T07:00:03.310Z,96.24
2023-06-29T07:05:03.061Z,96.19
2023-06-29T07:10:02.662Z,95.39
2023-06-29T07:15:03.549Z,93.26
2023-06-29T07:25:02.512Z,93.11
2023-06-29T07:30:03.574Z,87.22
2023-06-29T07:35:03.378Z,86.96
2023-06-29T07:40:03.247Z,88.51
2023-06-29T07:45:02.997Z,86.76
2023-06-29T07:50:03.238Z,84.59
2023-06-29T07:55:03.794Z,87.5
2023-06-29T08:00:02.875Z,83.24
2023-06-29T08:10:03.482Z,78.96
2023-06-29T08:15:03.449Z,76.33
2023-06-29T08:20:03.351Z,75.46
2023-06-29T08:25:03.101Z,76.97
2023-06-29T08:30:03.303Z,77.3
2023-06-29T08:35:03.270Z,74.74
2023-06-29T08:40:02.833Z,73.15
2023-06-29T08:45:02.759Z,75.64
2023-06-29T08:50:03.534Z,71.6
2023-06-29T08:55:04.036Z,71.49
2023-06-29T09:00:03.413Z,72.27
2023-06-29T09:05:03.127Z,64.69
2023-06-29T09:10:02.979Z,65.78
2023-06-29T09:15:03.618Z,65.56
2023-06-29T09:20:03.356Z,59.33
2023-06-29T09:25:35.021Z,57.93
2023-06-29T09:30:03.552Z,57.68
2023-06-29T09:35:03.329Z,54.88
2023-06-29T09:40:03.189Z,52.33
2023-06-29T09:45:02.790Z,54.72
2023-06-29T09:50:04.223Z,56.38
2023-06-29T09:55:03.524Z,53.33
2023-06-29T10:00:03.278Z,45.98
2023-06-29T10:05:03.692Z,50.8
2023-06-29T10:10:03.375Z,49.84
2023-06-29T10:15:03.006Z,53.64
2023-06-29T10:20:03.466Z,46.52
2023-06-29T10:25:03.044Z,49.32
2023-06-29T10:30:02.923Z,49.14
2023-06-29T10:35:02.819Z,50.76
2023-06-29T10:40:03.490Z,48.85
2023-06-29T10:45:03.269Z,42.69
2023-06-29T10:50:03.298Z,45.12
2023-06-29T10:55:03.664Z,43.91
2023-06-29T11:00:03.104Z,45.51
2023-06-29T11:05:02.856Z,43.47
2023-06-29T11:10:02.997Z,45.16
2023-06-29T11:20:02.985Z,43.99
2023-06-29T11:25:05.850Z,41.19
2023-06-29T11:30:03.131Z,42.14
2023-06-29T11:35:03.577Z,41.88
2023-06-29T11:40:03.507Z,43.44
2023-06-29T11:45:03.080Z,41.36
2023-06-29T11:50:03.172Z,40.54
2023-06-29T11:55:03.572Z,39.37
2023-06-29T12:00:02.707Z,45.59
2023-06-29T12:05:04.185Z,45.01
2023-06-29T12:10:03.333Z,46.84
2023-06-29T12:15:03.300Z,38.91
2023-06-29T12:20:11.707Z,39.1
2023-06-29T12:25:02.569Z,40.69
2023-06-29T12:30:02.774Z,38.78
2023-06-29T12:35:03.478Z,45.04
2023-06-29T12:40:03.207Z,45.91
2023-06-29T12:45:02.943Z,40.97
2023-06-29T12:50:03.597Z,40.37
2023-06-29T12:55:03.473Z,40.66
2023-06-29T13:00:03.080Z,40.69
2023-06-29T13:05:02.827Z,42.17
2023-06-29T13:10:03.550Z,38.54
2023-06-29T13:15:03.772Z,45.63
2023-06-29T13:20:03.021Z,40.88
2023-06-29T13:25:03.025Z,44.54
2023-06-29T13:30:02.762Z,42
2023-06-29T13:35:03.546Z,37.78
2023-06-29T13:40:03.225Z,36.43
2023-06-29T13:45:03.255Z,42.29
2023-06-29T13:50:03.135Z,43.94
2023-06-29T13:55:03.478Z,46.98
2023-06-29T14:00:03.170Z,45.85
2023-06-29T14:05:03.450Z,45.44
2023-06-29T14:10:03.212Z,39.21
2023-06-29T14:15:02.977Z,41.62
2023-06-29T14:20:02.808Z,40.07
2023-06-29T14:25:02.649Z,41.69
2023-06-29T14:30:03.520Z,42.61
2023-06-29T14:35:03.292Z,39.88
2023-06-29T14:40:03.070Z,41.51
2023-06-29T14:45:02.753Z,36.11
2023-06-29T14:50:03.506Z,39.26
2023-06-29T14:55:02.752Z,37.51
2023-06-29T15:00:03.375Z,38.25
2023-06-29T15:05:03.018Z,35.18
2023-06-29T15:10:03.009Z,35.34
2023-06-29T15:15:02.858Z,35.69
2023-06-29T15:20:03.485Z,34.39
2023-06-29T15:25:03.206Z,35.36
2023-06-29T15:30:03.164Z,31.53
2023-06-29T15:35:03.161Z,32.2
2023-06-29T15:40:03.401Z,33.65
2023-06-29T15:45:02.776Z,40.75
2023-06-29T15:50:03.351Z,43.42
2023-06-29T15:55:03.944Z,46.92
2023-06-29T16:00:03.284Z,45.74
2023-06-29T16:05:02.903Z,43
2023-06-29T16:10:02.778Z,40.27
2023-06-29T16:15:03.696Z,39.05
2023-06-29T16:20:03.569Z,44.46
2023-06-29T16:25:03.241Z,43.31
2023-06-29T16:30:03.194Z,44.54
2023-06-29T16:35:03.838Z,45.32
2023-06-29T16:40:03.492Z,42.76
2023-06-29T16:45:03.180Z,48.38
2023-06-29T16:50:03.628Z,52.55
2023-06-29T16:55:03.790Z,48.56
2023-06-29T17:00:03.210Z,50.21
2023-06-29T17:05:02.791Z,57.19
2023-06-29T17:10:02.862Z,49.21
2023-06-29T17:15:02.835Z,58.69
2023-06-29T17:20:03.700Z,59.52
2023-06-29T17:25:02.887Z,63.19
2023-06-29T17:30:03.163Z,55.55
2023-06-29T17:35:02.652Z,53.97
2023-06-29T17:40:03.444Z,56.91
2023-06-29T17:45:03.407Z,60.84
2023-06-29T17:50:03.417Z,60.75
2023-06-29T17:55:03.180Z,62.39
2023-06-29T18:00:02.869Z,58.73
2023-06-29T18:05:03.045Z,57.15
2023-06-29T18:10:02.762Z,59.88
2023-06-29T18:15:02.836Z,59.53
2023-06-29T18:20:03.895Z,60.98
2023-06-29T18:25:03.660Z,59.16
2023-06-29T18:30:03.043Z,59.08
2023-06-29T18:35:02.678Z,59.84
2023-06-29T18:40:03.457Z,60.21
2023-06-29T18:45:03.348Z,58.19
2023-06-29T18:50:03.041Z,61.28
2023-06-29T18:55:03.051Z,61.67
2023-06-29T19:00:03.366Z,63.85
2023-06-29T19:05:03.090Z,66.69
2023-06-29T19:10:02.870Z,68.63
2023-06-29T19:15:02.787Z,74.04
2023-06-29T19:20:02.652Z,75.3
2023-06-29T19:25:03.305Z,73.79
2023-06-29T19:30:03.394Z,73.68
2023-06-29T19:35:03.008Z,73.28
2023-06-29T19:40:02.756Z,73.56
2023-06-29T19:45:03.611Z,72.33
2023-06-29T19:50:02.837Z,72.88
2023-06-29T19:55:03.673Z,74.83
2023-06-29T20:00:03.084Z,74.71
2023-06-29T20:05:03.092Z,73.62
2023-06-29T20:10:03.528Z,75.07
2023-06-29T20:15:03.434Z,75.07
2023-06-29T20:20:03.207Z,78.02
2023-06-29T20:25:03.096Z,80.07
2023-06-29T20:30:02.612Z,82.3
2023-06-29T20:35:03.505Z,83.87
2023-06-29T20:40:02.901Z,82.55
2023-06-29T20:45:02.706Z,85.33
2023-06-29T20:50:03.065Z,86.16
2023-06-29T20:55:04.390Z,84.15
2023-06-29T21:00:03.411Z,86.51
2023-06-29T21:05:03.824Z,92.34
2023-06-29T21:10:02.880Z,97.75
2023-06-29T21:15:02.650Z,100
2023-06-29T21:20:02.588Z,100
2023-06-29T21:25:03.613Z,100
2023-06-29T21:30:03.285Z,100
2023-06-29T21:35:03.293Z,100
2023-06-29T21:40:03.688Z,100
2023-06-29T21:45:03.188Z,100
2023-06-29T21:50:03.014Z,100
2023-06-29T21:55:03.139Z,100
2023-06-29T22:00:03.672Z,100
2023-06-29T22:05:03.460Z,99.49
2023-06-29T22:10:03.214Z,96.96
2023-06-29T22:15:02.702Z,98.96
2023-06-29T22:20:03.151Z,100
2023-06-29T22:25:02.889Z,100
2023-06-29T22:30:03.444Z,100
2023-06-29T22:35:03.452Z,100
2023-06-29T22:40:03.292Z,97.72
2023-06-29T22:45:03.266Z,96.66
2023-06-29T22:50:02.814Z,97.52
2023-06-29T22:55:04.323Z,98.95
2023-06-29T23:00:03.216Z,99.67
2023-06-29T23:05:03.235Z,100
2023-06-29T23:10:02.631Z,99.47
2023-06-29T23:15:02.663Z,100
2023-06-29T23:20:03.381Z,100
2023-06-29T23:25:03.330Z,100
2023-06-29T23:30:03.001Z,100
2023-06-29T23:35:02.759Z,100
2023-06-29T23:40:03.421Z,100
2023-06-29T23:45:03.326Z,100
2023-06-29T23:50:02.832Z,100
2023-06-29T23:55:04.051Z,100
